createdAt,value
2019-05-09T00:01:35.888Z,23.45
2019-05-09T00:04:06.316Z,26.17
2019-05-09T00:06:36.685Z,37.75
2019-05-09T00:09:07.135Z,23.80
2019-05-09T00:11:37.609Z,26.05
2019-05-09T00:14:08.030Z,27.80
2019-05-09T00:16:38.474Z,23.00
2019-05-09T00:19:08.882Z,19.62
2019-05-09T00:21:40.902Z,21.25
2019-05-09T00:24:13.292Z,16.70
2019-05-09T00:26:44.240Z,21.85
2019-05-09T00:29:25.409Z,23.75
2019-05-09T00:32:00.140Z,24.23
2019-05-09T00:34:44.223Z,23.67
2019-05-09T00:37:14.689Z,31.90
2019-05-09T00:39:45.019Z,28.67
2019-05-09T00:42:15.421Z,21.93
2019-05-09T00:44:53.332Z,22.90
2019-05-09T00:47:25.368Z,31.68
2019-05-09T00:49:55.719Z,27.00
2019-05-09T00:52:26.172Z,28.50
2019-05-09T00:54:56.522Z,26.35
2019-05-09T00:57:35.855Z,24.80
2019-05-09T01:00:16.061Z,36.95
2019-05-09T01:02:46.444Z,33.48
2019-05-09T01:05:16.852Z,29.95
2019-05-09T01:07:47.234Z,28.03
2019-05-09T01:10:17.679Z,34.63
2019-05-09T01:12:48.259Z,36.03
2019-05-09T01:15:18.895Z,38.15
2019-05-09T01:17:49.281Z,33.87
2019-05-09T01:20:19.994Z,32.23
2019-05-09T01:22:50.451Z,29.23
2019-05-09T01:25:20.877Z,30.20
2019-05-09T01:27:53.680Z,31.30
2019-05-09T01:30:24.309Z,35.10
2019-05-09T01:32:56.347Z,34.47
2019-05-09T01:35:26.765Z,36.33
2019-05-09T01:37:57.230Z,40.03
2019-05-09T01:40:27.645Z,38.37
2019-05-09T01:42:58.095Z,36.90
2019-05-09T01:45:28.513Z,36.63
2019-05-09T01:47:58.960Z,42.27
2019-05-09T01:50:29.381Z,41.17
2019-05-09T01:52:59.798Z,44.60
2019-05-09T01:55:47.706Z,48.70
2019-05-09T01:58:18.201Z,42.00
2019-05-09T02:00:48.606Z,39.70
2019-05-09T02:03:20.706Z,35.73
2019-05-09T02:05:53.133Z,37.93
2019-05-09T02:08:23.776Z,36.30
2019-05-09T02:10:54.596Z,33.03
2019-05-09T02:13:25.058Z,33.40
2019-05-09T02:16:14.124Z,33.30
2019-05-09T02:18:46.865Z,36.60
2019-05-09T02:21:19.030Z,38.67
2019-05-09T02:23:49.513Z,34.70
2019-05-09T02:26:19.950Z,38.03
2019-05-09T02:28:50.424Z,39.93
2019-05-09T02:31:20.862Z,41.17
2019-05-09T02:33:53.864Z,35.03
2019-05-09T02:36:23.414Z,36.37
2019-05-09T02:38:53.897Z,35.63
2019-05-09T02:41:24.336Z,32.80
2019-05-09T02:43:58.361Z,35.93
2019-05-09T02:46:33.313Z,40.23
2019-05-09T02:49:03.894Z,38.10
2019-05-09T02:51:38.463Z,47.70
2019-05-09T02:54:09.915Z,35.80
2019-05-09T02:56:42.415Z,41.37
2019-05-09T02:59:19.069Z,39.80
2019-05-09T03:02:09.659Z,35.77
2019-05-09T03:04:39.359Z,43.37
2019-05-09T03:07:12.141Z,40.93
2019-05-09T03:09:42.720Z,55.50
2019-05-09T03:12:26.881Z,72.63
2019-05-09T03:14:48.558Z,58.60
2019-05-09T03:17:18.713Z,65.20
2019-05-09T03:19:49.282Z,56.87
2019-05-09T03:22:22.866Z,63.47
2019-05-09T03:24:53.356Z,61.47
2019-05-09T03:27:28.497Z,59.90
2019-05-09T03:29:59.168Z,57.47
2019-05-09T03:32:38.574Z,53.03
2019-05-09T03:35:08.490Z,53.87
2019-05-09T03:37:39.492Z,45.57
2019-05-09T03:40:10.094Z,46.97
2019-05-09T03:42:43.648Z,56.60
2019-05-09T03:45:14.339Z,46.57
2019-05-09T03:47:49.396Z,35.37
2019-05-09T03:50:19.876Z,32.73
2019-05-09T03:52:50.278Z,36.53
2019-05-09T03:55:22.341Z,30.03
2019-05-09T03:57:58.086Z,34.93
2019-05-09T04:00:28.693Z,38.30
2019-05-09T04:02:59.129Z,40.93
2019-05-09T04:05:29.556Z,44.43
2019-05-09T04:08:19.876Z,44.97
2019-05-09T04:10:51.901Z,60.57
2019-05-09T04:13:24.343Z,67.00
2019-05-09T04:15:54.796Z,68.90
2019-05-09T04:18:27.575Z,82.60
2019-05-09T04:20:57.461Z,83.40
2019-05-09T04:23:27.891Z,67.03
2019-05-09T04:26:07.511Z,64.83
2019-05-09T04:28:39.861Z,68.23
2019-05-09T04:31:09.977Z,57.93
2019-05-09T04:33:40.357Z,51.57
2019-05-09T04:36:10.692Z,51.17
2019-05-09T04:38:41.927Z,41.13
2019-05-09T04:41:16.402Z,22.23
2019-05-09T04:43:44.688Z,25.53
2019-05-09T04:46:20.718Z,18.30
2019-05-09T04:48:47.629Z,22.87
2019-05-09T04:51:18.137Z,26.53
2019-05-09T04:53:48.542Z,34.77
2019-05-09T04:56:23.465Z,43.57
2019-05-09T04:58:53.896Z,61.03
2019-05-09T05:01:27.994Z,63.57
2019-05-09T05:03:58.829Z,66.90
2019-05-09T05:06:29.169Z,47.87
2019-05-09T05:08:59.629Z,53.17
2019-05-09T05:11:30.035Z,51.50
2019-05-09T05:14:00.489Z,64.13
2019-05-09T05:16:30.813Z,61.23
2019-05-09T05:19:01.583Z,56.77
2019-05-09T05:21:31.964Z,53.40
2019-05-09T05:24:03.986Z,50.03
2019-05-09T05:26:34.304Z,51.07
2019-05-09T05:29:04.740Z,63.67
2019-05-09T05:31:35.149Z,76.17
2019-05-09T05:34:08.285Z,89.40
2019-05-09T05:36:38.754Z,66.57
2019-05-09T05:39:09.825Z,57.00
2019-05-09T05:41:40.236Z,41.43
2019-05-09T05:44:10.689Z,30.40
2019-05-09T05:46:50.791Z,22.97
2019-05-09T05:49:20.528Z,17.47
2019-05-09T05:51:50.961Z,9.97
2019-05-09T05:54:22.433Z,10.30
2019-05-09T05:56:52.846Z,10.70
2019-05-09T05:59:23.290Z,10.07
2019-05-09T06:01:53.731Z,23.27
2019-05-09T06:04:24.172Z,32.77
2019-05-09T06:06:54.584Z,44.40
2019-05-09T06:09:27.849Z,29.93
2019-05-09T06:11:57.892Z,24.40
2019-05-09T06:14:28.665Z,16.67
2019-05-09T06:16:59.057Z,14.13
2019-05-09T06:19:29.549Z,9.63
2019-05-09T06:21:59.839Z,10.37
2019-05-09T06:24:30.310Z,9.63
2019-05-09T06:27:00.614Z,11.57
2019-05-09T06:29:31.056Z,14.23
2019-05-09T06:32:01.379Z,18.93
2019-05-09T06:34:31.833Z,35.43
2019-05-09T06:37:03.178Z,21.83
2019-05-09T06:39:33.992Z,13.40
2019-05-09T06:42:04.306Z,9.47
2019-05-09T06:44:51.033Z,5.43
2019-05-09T06:47:22.897Z,4.47
2019-05-09T06:49:54.779Z,6.53
2019-05-09T06:52:25.006Z,4.60
2019-05-09T06:54:58.040Z,5.97
2019-05-09T06:57:28.113Z,6.40
2019-05-09T06:59:58.655Z,4.73
2019-05-09T07:02:30.503Z,5.13
2019-05-09T07:05:07.517Z,5.33
2019-05-09T07:07:57.559Z,7.37
2019-05-09T07:10:28.431Z,18.33
2019-05-09T07:12:58.762Z,24.80
2019-05-09T07:15:29.143Z,23.03
2019-05-09T07:17:59.538Z,21.33
2019-05-09T07:20:29.904Z,15.60
2019-05-09T07:23:00.307Z,9.93
2019-05-09T07:25:35.207Z,9.63
2019-05-09T07:28:07.627Z,8.40
2019-05-09T07:30:44.930Z,7.23
2019-05-09T07:33:19.769Z,7.77
2019-05-09T07:35:50.121Z,7.37
2019-05-09T07:38:30.984Z,5.53
2019-05-09T07:41:01.366Z,8.83
2019-05-09T07:43:31.661Z,11.73
2019-05-09T07:46:12.535Z,8.10
2019-05-09T07:48:44.409Z,6.13
2019-05-09T07:51:14.745Z,7.03
2019-05-09T07:53:45.037Z,8.60
2019-05-09T07:56:15.402Z,9.33
2019-05-09T07:58:47.631Z,6.90
2019-05-09T08:01:19.060Z,7.60
2019-05-09T08:03:49.565Z,8.50
2019-05-09T08:06:19.937Z,12.27
2019-05-09T08:08:50.342Z,14.73
2019-05-09T08:11:20.855Z,20.57
2019-05-09T08:13:51.278Z,19.77
2019-05-09T08:16:21.735Z,12.67
2019-05-09T08:18:52.055Z,14.63
2019-05-09T08:21:22.533Z,19.27
2019-05-09T08:23:52.945Z,6.30
2019-05-09T08:26:23.241Z,9.90
2019-05-09T08:28:53.556Z,5.77
2019-05-09T08:31:23.899Z,6.80
2019-05-09T08:33:54.214Z,4.53
2019-05-09T08:36:24.568Z,2.87
2019-05-09T08:38:54.871Z,2.10
2019-05-09T08:41:25.203Z,2.60
2019-05-09T08:43:57.572Z,2.87
2019-05-09T08:46:28.657Z,2.07
2019-05-09T08:48:59.095Z,1.87
2019-05-09T08:51:36.948Z,2.97
2019-05-09T08:54:03.057Z,4.77
2019-05-09T08:56:33.389Z,4.33
2019-05-09T08:59:03.686Z,2.33
2019-05-09T09:01:50.242Z,7.17
2019-05-09T09:04:08.055Z,3.60
2019-05-09T09:06:38.091Z,7.90
2019-05-09T09:09:08.333Z,26.37
2019-05-09T09:11:38.768Z,30.70
2019-05-09T09:14:09.088Z,44.37
2019-05-09T09:16:41.856Z,23.03
2019-05-09T09:19:11.573Z,39.30
2019-05-09T09:21:42.371Z,7.20
2019-05-09T09:24:12.694Z,3.03
2019-05-09T09:26:42.951Z,2.70
2019-05-09T09:29:13.263Z,3.10
2019-05-09T09:31:43.519Z,2.70
2019-05-09T09:34:13.765Z,4.60
2019-05-09T09:36:44.024Z,12.67
2019-05-09T09:39:14.425Z,12.60
2019-05-09T09:41:44.840Z,12.47
2019-05-09T09:44:17.804Z,2.83
2019-05-09T09:46:47.821Z,3.33
2019-05-09T09:49:18.188Z,2.00
2019-05-09T09:51:48.594Z,4.47
2019-05-09T09:54:18.904Z,6.73
2019-05-09T09:56:53.615Z,10.43
2019-05-09T09:59:28.561Z,5.70
2019-05-09T10:02:03.318Z,6.60
2019-05-09T10:04:33.682Z,7.53
2019-05-09T10:07:04.132Z,10.27
2019-05-09T10:09:34.525Z,9.73
2019-05-09T10:12:05.035Z,6.40
2019-05-09T10:14:39.918Z,5.77
2019-05-09T10:17:11.867Z,2.80
2019-05-09T10:19:43.725Z,4.13
2019-05-09T10:22:24.866Z,6.10
2019-05-09T10:24:53.707Z,18.70
2019-05-09T10:27:24.179Z,14.07
2019-05-09T10:29:54.604Z,18.20
2019-05-09T10:32:25.073Z,31.73
2019-05-09T10:34:57.878Z,63.07
2019-05-09T10:37:27.645Z,22.33
2019-05-09T10:39:58.312Z,11.93
2019-05-09T10:42:48.124Z,12.73
2019-05-09T10:45:39.977Z,11.83
2019-05-09T10:48:08.296Z,6.07
2019-05-09T10:50:44.954Z,4.53
2019-05-09T10:53:10.775Z,6.77
2019-05-09T10:55:41.073Z,4.50
2019-05-09T10:58:11.427Z,11.50
2019-05-09T11:00:41.760Z,12.83
2019-05-09T11:03:12.113Z,19.30
2019-05-09T11:05:42.430Z,18.20
2019-05-09T11:08:12.794Z,15.17
2019-05-09T11:10:43.602Z,16.07
2019-05-09T11:13:14.124Z,10.30
2019-05-09T11:15:44.558Z,11.70
2019-05-09T11:18:15.049Z,25.40
2019-05-09T11:20:45.429Z,18.30
2019-05-09T11:23:15.867Z,22.73
2019-05-09T11:25:47.267Z,18.70
2019-05-09T11:28:17.995Z,20.70
2019-05-09T11:30:48.480Z,13.77
2019-05-09T11:33:18.845Z,15.83
2019-05-09T11:35:49.160Z,15.63
2019-05-09T11:38:32.015Z,13.77
2019-05-09T11:40:51.729Z,17.80
2019-05-09T11:43:22.178Z,16.63
2019-05-09T11:45:52.588Z,14.60
2019-05-09T11:48:22.991Z,13.13
2019-05-09T11:50:53.399Z,12.50
2019-05-09T11:53:23.836Z,7.90
2019-05-09T11:55:54.282Z,8.50
2019-05-09T11:58:24.728Z,13.70
2019-05-09T12:00:55.167Z,17.87
2019-05-09T12:03:25.611Z,9.33
2019-05-09T12:05:58.159Z,5.20
2019-05-09T12:08:27.950Z,5.33
2019-05-09T12:10:58.249Z,8.90
2019-05-09T12:13:28.663Z,7.17
2019-05-09T12:15:58.889Z,9.60
2019-05-09T12:18:29.258Z,5.20
2019-05-09T12:20:59.549Z,8.17
2019-05-09T12:23:29.913Z,7.67
2019-05-09T12:26:00.269Z,5.90
2019-05-09T12:28:30.681Z,9.37
2019-05-09T12:31:00.994Z,5.87
2019-05-09T12:33:33.347Z,7.33
2019-05-09T12:36:03.345Z,5.03
2019-05-09T12:38:33.670Z,6.03
2019-05-09T12:41:04.009Z,5.20
2019-05-09T12:43:34.369Z,4.53
2019-05-09T12:46:04.777Z,4.33
2019-05-09T12:48:35.246Z,4.53
2019-05-09T12:51:08.084Z,4.20
2019-05-09T12:53:39.545Z,6.67
2019-05-09T12:56:09.655Z,5.97
2019-05-09T12:58:40.001Z,5.17
2019-05-09T13:01:10.373Z,3.77
2019-05-09T13:03:40.855Z,15.00
2019-05-09T13:06:11.291Z,4.80
2019-05-09T13:08:41.688Z,5.33
2019-05-09T13:11:12.178Z,5.83
2019-05-09T13:13:42.752Z,5.90
2019-05-09T13:16:17.891Z,5.30
2019-05-09T13:19:05.837Z,6.33
2019-05-09T13:21:38.956Z,8.47
2019-05-09T13:24:08.711Z,7.00
2019-05-09T13:26:39.219Z,8.13
2019-05-09T13:29:09.707Z,9.00
2019-05-09T13:31:40.180Z,16.63
2019-05-09T13:34:11.251Z,15.70
2019-05-09T13:36:41.704Z,20.97
2019-05-09T13:39:12.224Z,15.63
2019-05-09T13:41:42.691Z,32.20
2019-05-09T13:44:14.676Z,43.53
2019-05-09T13:46:45.148Z,21.47
2019-05-09T13:49:16.068Z,20.00
2019-05-09T13:51:57.414Z,22.90
2019-05-09T13:54:20.354Z,28.80
2019-05-09T13:56:57.524Z,30.57
2019-05-09T13:59:22.942Z,38.63
2019-05-09T14:01:53.388Z,43.63
2019-05-09T14:04:23.935Z,50.37
2019-05-09T14:06:54.361Z,61.83
2019-05-09T14:09:24.867Z,66.10
2019-05-09T14:11:58.595Z,72.57
2019-05-09T14:14:28.783Z,78.87
2019-05-09T14:16:59.477Z,80.30
2019-05-09T14:19:40.543Z,87.63
2019-05-09T14:22:02.169Z,91.57
2019-05-09T14:24:32.808Z,92.97
2019-05-09T14:27:03.251Z,84.73
2019-05-09T14:29:33.756Z,69.87
2019-05-09T14:32:05.223Z,69.17
2019-05-09T14:34:38.150Z,44.03
2019-05-09T14:37:09.542Z,35.57
2019-05-09T14:39:54.760Z,37.20
2019-05-09T14:42:12.539Z,24.33
2019-05-09T14:44:43.048Z,9.63
2019-05-09T14:47:13.866Z,10.30
2019-05-09T14:49:44.831Z,7.37
2019-05-09T14:52:15.423Z,5.23
2019-05-09T14:54:48.256Z,8.37
2019-05-09T14:57:18.106Z,3.43
2019-05-09T14:59:48.603Z,5.10
2019-05-09T15:02:19.466Z,3.70
2019-05-09T15:04:50.002Z,3.07
2019-05-09T15:07:20.462Z,4.20
2019-05-09T15:09:50.999Z,3.80
2019-05-09T15:12:21.445Z,3.63
2019-05-09T15:14:52.927Z,3.27
2019-05-09T15:17:23.356Z,3.93
2019-05-09T15:20:00.075Z,2.87
2019-05-09T15:22:28.374Z,5.80
2019-05-09T15:24:59.094Z,4.50
2019-05-09T15:27:29.618Z,4.30
2019-05-09T15:30:00.140Z,4.37
2019-05-09T15:32:30.655Z,5.77
2019-05-09T15:35:01.063Z,5.63
2019-05-09T15:37:31.427Z,7.23
2019-05-09T15:40:01.937Z,4.97
2019-05-09T15:42:32.367Z,3.90
2019-05-09T15:45:02.748Z,4.43
2019-05-09T15:47:34.734Z,3.83
2019-05-09T15:50:19.243Z,3.17
2019-05-09T15:52:40.571Z,6.30
2019-05-09T15:55:11.369Z,4.23
2019-05-09T15:57:41.813Z,4.67
2019-05-09T16:00:14.697Z,4.10
2019-05-09T16:02:48.232Z,3.20
2019-05-09T16:05:18.010Z,2.97
2019-05-09T16:07:48.553Z,3.63
2019-05-09T16:10:19.035Z,4.13
2019-05-09T16:12:49.403Z,3.90
2019-05-09T16:15:20.808Z,3.30
2019-05-09T16:17:51.245Z,3.10
2019-05-09T16:20:36.506Z,4.23
2019-05-09T16:22:57.016Z,5.90
2019-05-09T16:25:28.272Z,5.20
2019-05-09T16:27:58.755Z,3.40
2019-05-09T16:30:29.247Z,4.37
2019-05-09T16:32:59.658Z,4.73
2019-05-09T16:35:30.133Z,5.97
2019-05-09T16:38:06.360Z,8.07
2019-05-09T16:40:32.761Z,7.37
2019-05-09T16:43:03.179Z,3.67
2019-05-09T16:45:33.677Z,4.40
2019-05-09T16:48:04.132Z,6.90
2019-05-09T16:50:34.629Z,4.17
2019-05-09T16:53:05.067Z,6.17
2019-05-09T16:55:38.077Z,5.07
2019-05-09T16:58:08.793Z,6.23
2019-05-09T17:00:42.269Z,5.67
2019-05-09T17:03:12.894Z,5.63
2019-05-09T17:05:43.384Z,6.40
2019-05-09T17:08:13.825Z,5.83
2019-05-09T17:10:44.449Z,5.07
2019-05-09T17:13:14.910Z,5.03
2019-05-09T17:15:48.081Z,7.10
2019-05-09T17:18:19.068Z,5.33
2019-05-09T17:20:54.037Z,7.53
2019-05-09T17:23:29.288Z,7.00
2019-05-09T17:25:58.034Z,8.13
2019-05-09T17:28:28.606Z,8.80
2019-05-09T17:30:59.011Z,9.47
2019-05-09T17:33:29.441Z,6.97
2019-05-09T17:35:59.829Z,8.93
2019-05-09T17:38:30.173Z,10.13
2019-05-09T17:41:00.955Z,9.27
2019-05-09T17:43:31.388Z,12.20
2019-05-09T17:46:01.794Z,11.00
2019-05-09T17:48:32.245Z,12.23
2019-05-09T17:51:02.723Z,12.67
2019-05-09T17:53:34.034Z,12.47
2019-05-09T17:56:04.754Z,11.73
2019-05-09T17:58:35.189Z,12.73
2019-05-09T18:01:07.832Z,12.03
2019-05-09T18:03:38.579Z,12.40
2019-05-09T18:06:09.101Z,15.80
2019-05-09T18:08:39.531Z,13.23
2019-05-09T18:11:12.961Z,12.73
2019-05-09T18:13:42.173Z,14.97
2019-05-09T18:16:13.604Z,13.07
2019-05-09T18:18:44.170Z,12.57
2019-05-09T18:21:14.642Z,11.30
2019-05-09T18:23:45.158Z,8.53
2019-05-09T18:26:15.637Z,8.83
2019-05-09T18:28:47.938Z,6.77
2019-05-09T18:31:18.227Z,6.17
2019-05-09T18:33:50.272Z,6.37
2019-05-09T18:36:20.700Z,7.60
2019-05-09T18:38:51.094Z,6.03
2019-05-09T18:41:21.563Z,6.23
2019-05-09T18:43:51.977Z,5.47
2019-05-09T18:46:22.441Z,5.13
2019-05-09T18:48:52.861Z,5.13
2019-05-09T18:51:23.245Z,7.37
2019-05-09T18:53:53.588Z,8.10
2019-05-09T18:56:24.054Z,5.57
2019-05-09T18:58:54.479Z,5.80
2019-05-09T19:01:24.936Z,7.33
2019-05-09T19:03:55.395Z,6.77
2019-05-09T19:06:25.858Z,5.27
2019-05-09T19:08:56.208Z,6.67
2019-05-09T19:11:26.659Z,5.97
2019-05-09T19:13:58.024Z,4.77
2019-05-09T19:16:33.962Z,3.77
2019-05-09T19:19:09.017Z,4.67
2019-05-09T19:21:44.002Z,5.23
2019-05-09T19:24:14.317Z,7.03
2019-05-09T19:26:44.763Z,4.87
2019-05-09T19:29:15.109Z,6.10
2019-05-09T19:31:45.577Z,5.67
2019-05-09T19:34:15.981Z,5.63
2019-05-09T19:36:46.445Z,4.77
2019-05-09T19:39:16.860Z,5.37
2019-05-09T19:41:47.337Z,6.20
2019-05-09T19:44:17.761Z,8.13
2019-05-09T19:46:48.240Z,5.33
2019-05-09T19:49:18.663Z,6.83
2019-05-09T19:51:49.113Z,7.63
2019-05-09T19:54:19.555Z,8.47
2019-05-09T19:56:50.020Z,6.80
2019-05-09T19:59:20.424Z,7.27
2019-05-09T20:01:50.900Z,6.17
2019-05-09T20:04:21.351Z,6.50
2019-05-09T20:06:51.831Z,6.93
2019-05-09T20:09:23.831Z,7.97
2019-05-09T20:12:04.796Z,9.93
2019-05-09T20:14:36.770Z,7.43
2019-05-09T20:17:07.432Z,8.13
2019-05-09T20:19:37.816Z,6.73
2019-05-09T20:22:08.204Z,11.23
2019-05-09T20:24:38.661Z,10.33
2019-05-09T20:27:09.109Z,11.30
2019-05-09T20:29:39.525Z,12.53
2019-05-09T20:32:10.014Z,15.03
2019-05-09T20:34:40.666Z,12.53
2019-05-09T20:37:11.053Z,10.83
2019-05-09T20:39:41.593Z,10.90
2019-05-09T20:42:12.238Z,8.63
2019-05-09T20:44:42.832Z,7.40
2019-05-09T20:47:13.457Z,8.80
2019-05-09T20:49:44.092Z,9.97
2019-05-09T20:52:14.842Z,8.10
2019-05-09T20:54:45.362Z,10.67
2019-05-09T20:57:15.935Z,6.80
2019-05-09T20:59:46.447Z,7.07
2019-05-09T21:02:17.083Z,7.00
2019-05-09T21:04:47.696Z,7.07
2019-05-09T21:07:18.315Z,8.03
2019-05-09T21:09:48.839Z,7.27
2019-05-09T21:12:19.458Z,7.77
2019-05-09T21:14:50.057Z,9.87
2019-05-09T21:17:22.531Z,7.17
2019-05-09T21:19:53.207Z,10.47
2019-05-09T21:22:23.854Z,11.33
2019-05-09T21:24:54.379Z,11.93
2019-05-09T21:27:25.009Z,15.73
2019-05-09T21:29:55.592Z,21.97
2019-05-09T21:32:26.156Z,28.70
2019-05-09T21:34:56.486Z,29.83
2019-05-09T21:37:26.959Z,28.53
2019-05-09T21:39:57.377Z,37.47
2019-05-09T21:42:27.854Z,37.30
2019-05-09T21:44:58.266Z,44.33
2019-05-09T21:47:28.742Z,50.43
2019-05-09T21:49:59.163Z,50.07
2019-05-09T21:52:29.620Z,45.07
2019-05-09T21:55:00.029Z,42.67
2019-05-09T21:57:30.481Z,40.20
2019-05-09T22:00:00.920Z,31.70
2019-05-09T22:02:31.382Z,32.83
2019-05-09T22:05:01.815Z,34.53
2019-05-09T22:07:32.280Z,36.07
2019-05-09T22:10:02.838Z,31.57
2019-05-09T22:12:33.327Z,37.50
2019-05-09T22:15:04.966Z,27.37
2019-05-09T22:17:40.256Z,35.23
2019-05-09T22:20:12.173Z,33.83
2019-05-09T22:22:42.640Z,31.43
2019-05-09T22:25:13.171Z,30.07
2019-05-09T22:27:43.613Z,31.33
2019-05-09T22:30:15.379Z,30.80
2019-05-09T22:32:45.834Z,27.97
2019-05-09T22:35:16.686Z,21.87
2019-05-09T22:37:47.150Z,24.80
2019-05-09T22:40:17.692Z,18.83
2019-05-09T22:42:48.151Z,18.60
2019-05-09T22:45:19.430Z,15.63
2019-05-09T22:47:49.813Z,13.47
2019-05-09T22:50:20.219Z,13.40
2019-05-09T22:52:50.645Z,11.10
2019-05-09T22:55:21.092Z,11.03
2019-05-09T22:57:51.554Z,10.50
2019-05-09T23:00:21.980Z,10.60
2019-05-09T23:02:52.449Z,10.47
2019-05-09T23:05:22.784Z,9.57
2019-05-09T23:07:53.180Z,10.47
2019-05-09T23:10:23.591Z,9.03
2019-05-09T23:12:54.041Z,9.37
2019-05-09T23:15:24.470Z,9.47
2019-05-09T23:17:55.964Z,12.53
2019-05-09T23:20:42.842Z,13.00
2019-05-09T23:23:23.679Z,12.53
2019-05-09T23:25:54.296Z,12.47
2019-05-09T23:28:25.173Z,14.83
2019-05-09T23:30:57.163Z,11.23
2019-05-09T23:33:29.174Z,14.07
2019-05-09T23:35:59.702Z,19.30
2019-05-09T23:38:30.155Z,20.83
2019-05-09T23:41:00.607Z,21.93
2019-05-09T23:43:31.001Z,24.27
2019-05-09T23:46:01.435Z,24.40
2019-05-09T23:48:31.913Z,22.60
2019-05-09T23:51:02.384Z,22.50
2019-05-09T23:53:38.964Z,19.93
2019-05-09T23:56:26.819Z,14.17
2019-05-09T23:59:14.796Z,15.30
